createdAt,value
2023-05-04T00:01:08.462Z,8.13
2023-05-04T00:03:35.129Z,8.73
2023-05-04T00:06:01.896Z,8.68
2023-05-04T00:08:28.460Z,7.68
2023-05-04T00:10:55.015Z,7.95
2023-05-04T00:13:22.187Z,8.50
2023-05-04T00:15:48.845Z,10.60
2023-05-04T00:18:15.537Z,10.40
2023-05-04T00:20:42.028Z,9.70
2023-05-04T00:23:08.558Z,8.07
2023-05-04T00:25:35.308Z,7.03
2023-05-04T00:28:02.057Z,8.00
2023-05-04T00:30:28.539Z,9.07
2023-05-04T00:32:55.158Z,10.77
2023-05-04T00:35:21.700Z,8.13
2023-05-04T00:37:48.240Z,8.85
2023-05-04T00:40:14.906Z,8.00
2023-05-04T00:42:41.366Z,11.27
2023-05-04T00:45:08.156Z,10.82
2023-05-04T00:47:35.223Z,10.10
2023-05-04T00:50:02.113Z,9.43
2023-05-04T00:52:29.479Z,9.25
2023-05-04T00:54:55.884Z,9.02
2023-05-04T00:57:22.284Z,9.35
2023-05-04T00:59:48.571Z,10.25
2023-05-04T01:02:14.863Z,10.18
2023-05-04T01:04:41.284Z,9.05
2023-05-04T01:07:19.773Z,12.07
2023-05-04T01:10:02.931Z,9.77
2023-05-04T01:12:37.881Z,9.10
2023-05-04T01:15:05.812Z,9.27
2023-05-04T01:17:32.248Z,8.98
2023-05-04T01:19:58.693Z,10.75
2023-05-04T01:22:25.114Z,9.95
2023-05-04T01:24:51.439Z,8.27
2023-05-04T01:27:26.231Z,8.85
2023-05-04T01:30:02.144Z,9.25
2023-05-04T01:32:31.118Z,8.50
2023-05-04T01:34:58.526Z,8.98
2023-05-04T01:37:25.585Z,9.13
2023-05-04T01:39:52.259Z,8.43
2023-05-04T01:42:18.711Z,7.40
2023-05-04T01:44:45.130Z,8.50
2023-05-04T01:47:11.535Z,8.90
2023-05-04T01:49:37.865Z,7.40
2023-05-04T01:52:05.051Z,10.40
2023-05-04T01:54:31.462Z,10.23
2023-05-04T01:56:57.791Z,9.80
2023-05-04T01:59:24.269Z,8.10
2023-05-04T02:01:50.587Z,9.40
2023-05-04T02:04:16.896Z,11.82
2023-05-04T02:06:43.202Z,7.30
2023-05-04T02:09:09.492Z,10.90
2023-05-04T02:11:35.801Z,8.13
2023-05-04T02:14:02.082Z,10.27
2023-05-04T02:16:28.443Z,9.80
2023-05-04T02:18:54.776Z,10.18
2023-05-04T02:21:21.086Z,10.63
2023-05-04T02:23:47.504Z,7.32
2023-05-04T02:26:13.897Z,9.68
2023-05-04T02:28:40.164Z,7.68
2023-05-04T02:31:06.477Z,9.57
2023-05-04T02:33:32.797Z,11.27
2023-05-04T02:35:59.097Z,10.93
2023-05-04T02:38:26.586Z,9.88
2023-05-04T02:40:52.850Z,9.77
2023-05-04T02:43:19.156Z,9.88
2023-05-04T02:45:45.568Z,8.73
2023-05-04T02:48:11.882Z,9.10
2023-05-04T02:50:38.186Z,8.55
2023-05-04T02:53:04.473Z,9.27
2023-05-04T02:55:30.937Z,8.43
2023-05-04T02:57:57.230Z,8.23
2023-05-04T03:00:23.811Z,8.27
2023-05-04T03:02:50.242Z,9.50
2023-05-04T03:05:16.572Z,8.63
2023-05-04T03:07:43.003Z,9.40
2023-05-04T03:10:09.727Z,10.15
2023-05-04T03:12:36.080Z,10.32
2023-05-04T03:15:02.513Z,8.70
2023-05-04T03:17:28.860Z,8.32
2023-05-04T03:19:55.282Z,9.95
2023-05-04T03:22:21.648Z,11.45
2023-05-04T03:24:48.033Z,9.73
2023-05-04T03:27:14.316Z,7.97
2023-05-04T03:29:40.698Z,9.73
2023-05-04T03:32:07.096Z,10.35
2023-05-04T03:34:33.620Z,12.60
2023-05-04T03:37:00.002Z,10.45
2023-05-04T03:39:26.387Z,6.90
2023-05-04T03:41:52.703Z,7.75
2023-05-04T03:44:19.112Z,12.60
2023-05-04T03:46:45.475Z,8.27
2023-05-04T03:49:11.764Z,7.13
2023-05-04T03:51:38.054Z,6.35
2023-05-04T03:54:04.341Z,8.95
2023-05-04T03:56:30.665Z,7.47
2023-05-04T03:58:56.947Z,9.02
2023-05-04T04:01:23.254Z,10.13
2023-05-04T04:03:49.808Z,7.00
2023-05-04T04:06:16.292Z,8.70
2023-05-04T04:08:42.548Z,9.52
2023-05-04T04:11:08.905Z,8.00
2023-05-04T04:13:35.209Z,9.32
2023-05-04T04:16:01.524Z,10.10
2023-05-04T04:18:27.848Z,11.20
2023-05-04T04:20:54.171Z,9.30
2023-05-04T04:23:20.465Z,11.75
2023-05-04T04:25:46.943Z,11.48
2023-05-04T04:28:14.261Z,13.23
2023-05-04T04:30:40.646Z,13.43
2023-05-04T04:33:07.165Z,12.48
2023-05-04T04:35:33.923Z,11.05
2023-05-04T04:38:02.932Z,11.93
2023-05-04T04:40:29.944Z,15.48
2023-05-04T04:42:56.365Z,12.52
2023-05-04T04:45:22.765Z,11.23
2023-05-04T04:47:49.102Z,10.07
2023-05-04T04:50:15.414Z,10.43
2023-05-04T04:52:41.702Z,8.35
2023-05-04T04:55:08.460Z,10.52
2023-05-04T04:57:34.747Z,9.68
2023-05-04T05:00:01.171Z,10.65
2023-05-04T05:02:27.599Z,10.27
2023-05-04T05:04:54.319Z,8.77
2023-05-04T05:07:20.936Z,9.73
2023-05-04T05:09:47.236Z,8.90
2023-05-04T05:12:13.563Z,10.05
2023-05-04T05:14:39.829Z,10.05
2023-05-04T05:17:06.177Z,9.25
2023-05-04T05:19:32.709Z,10.10
2023-05-04T05:21:59.016Z,9.80
2023-05-04T05:24:25.293Z,10.88
2023-05-04T05:26:51.572Z,11.15
2023-05-04T05:29:17.847Z,10.32
2023-05-04T05:31:44.310Z,8.50
2023-05-04T05:34:10.593Z,9.68
2023-05-04T05:36:36.879Z,11.45
2023-05-04T05:39:03.252Z,12.05
2023-05-04T05:41:29.575Z,14.25
2023-05-04T05:43:55.952Z,15.73
2023-05-04T05:46:22.365Z,11.98
2023-05-04T05:48:48.766Z,11.55
2023-05-04T05:51:15.041Z,13.15
2023-05-04T05:53:41.331Z,14.63
2023-05-04T05:56:07.751Z,12.73
2023-05-04T05:58:34.108Z,13.82
2023-05-04T06:01:00.572Z,12.27
2023-05-04T06:03:27.097Z,14.23
2023-05-04T06:05:53.564Z,12.48
2023-05-04T06:08:20.001Z,14.65
2023-05-04T06:10:46.299Z,10.52
2023-05-04T06:13:12.631Z,17.23
2023-05-04T06:15:39.042Z,16.88
2023-05-04T06:18:05.362Z,16.30
2023-05-04T06:20:31.639Z,14.23
2023-05-04T06:22:58.025Z,15.77
2023-05-04T06:25:24.443Z,13.20
2023-05-04T06:27:50.911Z,13.07
2023-05-04T06:30:17.308Z,17.65
2023-05-04T06:32:43.622Z,13.68
2023-05-04T06:35:09.926Z,17.92
2023-05-04T06:37:36.238Z,15.55
2023-05-04T06:40:02.709Z,17.73
2023-05-04T06:42:29.880Z,18.88
2023-05-04T06:44:57.434Z,15.82
2023-05-04T06:47:23.838Z,14.20
2023-05-04T06:49:50.179Z,14.00
2023-05-04T06:52:16.444Z,16.38
2023-05-04T06:54:42.763Z,13.73
2023-05-04T06:57:09.103Z,13.45
2023-05-04T06:59:35.395Z,14.65
2023-05-04T07:02:01.714Z,16.27
2023-05-04T07:04:28.136Z,12.93
2023-05-04T07:06:54.454Z,11.07
2023-05-04T07:09:21.048Z,11.63
2023-05-04T07:11:47.482Z,11.55
2023-05-04T07:14:14.635Z,10.77
2023-05-04T07:16:41.113Z,11.18
2023-05-04T07:19:07.657Z,9.50
2023-05-04T07:24:09.289Z,10.38
2023-05-04T07:26:35.579Z,9.70
2023-05-04T07:31:34.117Z,9.80
2023-05-04T07:34:00.517Z,7.10
2023-05-04T07:36:26.802Z,9.75
2023-05-04T07:38:53.983Z,7.85
2023-05-04T07:41:20.315Z,7.57
2023-05-04T07:43:46.781Z,7.43
2023-05-04T07:46:13.500Z,5.90
2023-05-04T07:48:39.813Z,7.05
2023-05-04T07:51:06.214Z,8.32
2023-05-04T07:53:32.500Z,8.55
2023-05-04T07:56:07.638Z,8.15
2023-05-04T07:58:33.946Z,7.88
2023-05-04T08:01:00.238Z,7.75
2023-05-04T08:03:26.582Z,8.18
2023-05-04T08:05:52.915Z,8.45
2023-05-04T08:08:19.214Z,7.95
2023-05-04T08:10:45.499Z,7.18
2023-05-04T08:13:11.913Z,7.72
2023-05-04T08:15:38.302Z,6.43
2023-05-04T08:18:04.766Z,8.25
2023-05-04T08:20:31.083Z,5.90
2023-05-04T08:22:57.351Z,8.02
2023-05-04T08:25:23.747Z,7.97
2023-05-04T08:27:50.061Z,7.38
2023-05-04T08:30:16.512Z,6.93
2023-05-04T08:32:42.833Z,6.53
2023-05-04T08:35:09.256Z,7.70
2023-05-04T08:37:35.584Z,6.25
2023-05-04T08:40:01.988Z,6.93
2023-05-04T08:42:29.973Z,5.72
2023-05-04T08:44:57.472Z,5.47
2023-05-04T08:47:27.760Z,6.60
2023-05-04T08:49:55.240Z,7.07
2023-05-04T08:52:25.802Z,8.70
2023-05-04T08:54:56.200Z,5.28
2023-05-04T08:57:23.283Z,7.75
2023-05-04T08:59:54.189Z,5.85
2023-05-04T09:02:21.759Z,5.88
2023-05-04T09:04:51.936Z,5.60
2023-05-04T09:07:19.613Z,8.15
2023-05-04T09:09:46.490Z,5.60
2023-05-04T09:12:13.311Z,6.90
2023-05-04T09:14:40.643Z,6.35
2023-05-04T09:17:19.305Z,5.05
2023-05-04T09:19:45.615Z,5.50
2023-05-04T09:22:19.414Z,7.40
2023-05-04T09:24:45.901Z,6.97
2023-05-04T09:27:13.614Z,7.63
2023-05-04T09:29:41.529Z,8.18
2023-05-04T09:32:12.257Z,5.43
2023-05-04T09:34:47.700Z,5.90
2023-05-04T09:37:14.117Z,4.55
2023-05-04T09:39:50.646Z,6.35
2023-05-04T09:42:17.410Z,5.70
2023-05-04T09:44:43.717Z,6.90
2023-05-04T09:47:10.589Z,5.65
2023-05-04T09:49:37.564Z,6.03
2023-05-04T09:52:05.879Z,4.90
2023-05-04T09:54:33.930Z,5.50
2023-05-04T10:31:16.675Z,6.97
2023-05-04T11:11:36.939Z,4.57
2023-05-04T11:16:45.309Z,5.18
2023-05-04T15:12:28.385Z,3.13
2023-05-04T15:52:42.268Z,2.57
2023-05-04T15:55:23.826Z,2.88
2023-05-04T15:57:51.670Z,2.83
2023-05-04T16:00:18.300Z,1.85
2023-05-04T16:02:44.701Z,2.65
2023-05-04T16:05:11.179Z,4.38
2023-05-04T16:07:37.484Z,3.85
2023-05-04T16:10:04.023Z,4.57
2023-05-04T16:12:30.414Z,3.58
2023-05-04T16:14:56.724Z,2.17
2023-05-04T16:17:23.041Z,3.35
2023-05-04T16:19:49.376Z,2.65
2023-05-04T16:22:15.692Z,4.15
2023-05-04T16:24:42.046Z,2.03
2023-05-04T16:27:08.332Z,2.13
2023-05-04T16:29:34.607Z,2.85
2023-05-04T16:32:00.959Z,2.40
2023-05-04T16:34:27.263Z,2.97
2023-05-04T16:36:53.558Z,2.67
2023-05-04T16:39:19.906Z,2.83
2023-05-04T16:41:46.208Z,1.58
2023-05-04T16:44:12.580Z,1.48
2023-05-04T16:46:38.925Z,5.22
2023-05-04T16:49:06.414Z,4.25
2023-05-04T16:51:33.966Z,2.42
2023-05-04T16:54:00.307Z,1.67
2023-05-04T16:56:26.677Z,1.73
2023-05-04T16:58:53.025Z,1.63
2023-05-04T17:01:19.413Z,1.67
2023-05-04T17:03:45.917Z,2.95
2023-05-04T17:06:12.285Z,2.17
2023-05-04T17:08:38.588Z,3.88
2023-05-04T17:11:04.852Z,1.75
2023-05-04T17:13:31.155Z,2.05
2023-05-04T17:15:57.549Z,3.85
2023-05-04T17:18:23.886Z,4.90
2023-05-04T17:20:50.264Z,1.65
2023-05-04T17:23:16.634Z,3.63
2023-05-04T17:25:43.061Z,1.75
2023-05-04T17:28:09.464Z,2.83
2023-05-04T17:30:35.742Z,2.72
2023-05-04T17:33:02.156Z,2.17
2023-05-04T17:35:28.608Z,4.00
2023-05-04T17:37:57.868Z,3.65
2023-05-04T17:40:25.995Z,1.70
2023-05-04T17:42:52.476Z,2.15
2023-05-04T17:45:18.801Z,2.13
2023-05-04T17:47:45.366Z,3.65
2023-05-04T17:50:12.283Z,3.85
2023-05-04T17:55:05.291Z,1.83
2023-05-04T17:57:31.686Z,5.35
2023-05-04T17:59:57.991Z,2.28
2023-05-04T18:02:24.408Z,2.10
2023-05-04T18:04:51.062Z,3.45
2023-05-04T18:07:17.360Z,4.13
2023-05-04T18:09:43.687Z,3.42
2023-05-04T19:39:48.729Z,2.42
2023-05-04T19:42:15.246Z,4.35
2023-05-04T19:44:41.777Z,3.53
2023-05-04T20:03:13.387Z,3.97
2023-05-04T21:36:23.248Z,4.20
2023-05-04T22:32:42.268Z,4.53
2023-05-04T22:35:09.067Z,5.35
2023-05-04T23:09:51.355Z,6.68
2023-05-04T23:47:16.185Z,4.63
2023-05-04T23:49:42.465Z,4.57
2023-05-04T23:52:08.795Z,5.45
2023-05-04T23:54:35.086Z,7.72
2023-05-04T23:57:01.416Z,5.43
2023-05-04T23:59:27.795Z,6.60
